Higuey, Dominican Republic
Current Conditions -  °F | °C
As of 2:00 PM on Monday 20 Oct 2014 (Local Time) from MDLR Reporting Station
Light Rain Light Rain  
Wind Chill: 82°   Ceiling: Unl
Heat Index: 91°   Visibility: 5mi
Dew Point: 77°   Wind: 7mph
Humidity: 84%   Direction: 110°ESE
Pressure: 29.91"   Gusts: NA
Location:  18.62°N, 68.71°W
Report Text: MDLR 201800Z 11006KT 8000 -RA FEW019CB SCT021 28/25 Q1013 CB/SE/E
Loading
Personal Weather Stations






























Interactive Weather Map
Tropical Storm Tracking
New forecast layout! Learn more

10-Day Weather Forecast

Advertisements
Track Severe Weather on mobile